Time;durP1;ratioP1;P1;durP2;ratioP2;P2;SDS_P1;SDS_P2;PMS_P1;PMS_P2;Temp;Humidity;BMP_temperature;BMP_pressure;BME280_temperature;BME280_humidity;BME280_pressure;Samples;Min_cycle;Max_cycle;Signal;HPM_P1;HPM_P2
2021/06/28 00:02:22;;;;;;;;;;;;;;;;;;;;;
2021/06/28 00:05:47;;;;;;;;;;;;;;;;;;;;;
2021/06/28 00:08:35;;;;;;;;;;;;;;;;;;;;;
2021/06/28 00:11:29;;;;;;;;;4.33;4.33;;;;;20.87;69.67;101054.84;6036101;23;73715;-93
2021/06/28 00:14:08;;;;;;;;;4.00;4.00;;;;;20.78;69.09;101045.22;5931120;23;45538;-93
2021/06/28 00:20:10;;;;;;;;;;;;;;;;;;;;;
2021/06/28 00:22:49;;;;;;;;;5.00;4.00;;;;;20.70;69.87;101031.16;5922066;24;75054;-94
2021/06/28 00:25:57;;;;;;;;;5.33;4.00;;;;;20.67;69.87;101021.41;5923577;24;45425;-93
2021/06/28 00:28:26;;;;;;;;;3.00;3.00;;;;;20.68;70.27;101027.63;5924346;24;45394;-93
2021/06/28 00:31:51;;;;;;;;;;;;;;;;;;;;;
2021/06/28 00:34:29;;;;;;;;;5.33;5.33;;;;;20.67;70.00;101009.84;5876306;24;74256;-93
2021/06/28 00:37:44;;;;;;;;;5.67;4.33;;;;;20.78;70.02;101022.97;5876939;24;45522;-91
2021/06/28 00:44:05;;;;;;;;;6.33;5.00;;;;;20.60;69.84;100961.03;5809786;24;45334;-92
2021/06/28 00:46:48;;;;;;;;;5.00;5.00;;;;;20.76;69.71;100987.41;5782773;24;45412;-92
2021/06/28 00:49:24;;;;;;;;;5.00;5.00;;;;;20.64;70.00;100968.06;5754970;24;45446;-93
2021/06/28 00:52:20;;;;;;;;;7.33;5.00;;;;;20.59;70.16;100969.94;5814596;24;45402;-93
2021/06/28 00:55:07;;;;;;;;;7.33;5.67;;;;;20.56;70.18;100970.03;5793360;24;45361;-94
2021/06/28 00:57:53;;;;;;;;;;;;;;;;;;;;;
2021/06/28 01:00:39;;;;;;;;;;;;;;;;;;;;;
2021/06/28 01:03:08;;;;;;;;;6.67;5.00;;;;;20.60;70.41;100961.03;5896635;24;68435;-94
2021/06/28 01:06:10;;;;;;;;;;;;;;;;;;;;;
2021/06/28 01:08:49;;;;;;;;;5.00;5.00;;;;;20.64;70.26;100961.84;5895708;24;75204;-94
2021/06/28 01:11:30;;;;;;;;;;;;;;;;;;;;;
2021/06/28 01:14:09;;;;;;;;;6.00;5.00;;;;;20.57;70.30;100934.38;5978876;23;68838;-93
2021/06/28 01:19:55;;;;;;;;;5.33;5.00;;;;;20.51;70.50;100891.78;5958724;23;46221;-93
2021/06/28 01:22:36;;;;;;;;;6.33;5.00;;;;;20.58;70.35;100902.28;6008419;23;45481;-92
2021/06/28 01:25:19;;;;;;;;;5.33;5.33;;;;;20.65;70.45;100939.53;6032470;23;45451;-92
2021/06/28 01:28:22;;;;;;;;;5.00;5.00;;;;;20.55;70.58;100952.22;6008326;23;45306;-94
2021/06/28 01:31:21;;;;;;;;;;;;;;;;;;;;;
2021/06/28 01:34:04;;;;;;;;;8.00;5.67;;;;;20.48;70.43;100967.47;5978754;23;72832;-94
2021/06/28 01:37:00;;;;;;;;;;;;;;;;;;;;;
2021/06/28 01:39:44;;;;;;;;;3.00;2.00;;;;;20.54;69.82;100985.19;5978684;23;64053;-93
2021/06/28 01:42:35;;;;;;;;;;;;;;;;;;;;;
2021/06/28 01:46:00;;;;;;;;;;;;;;;;;;;;;
2021/06/28 01:48:43;;;;;;;;;2.00;2.00;;;;;20.36;68.57;100979.28;5909273;23;44901;-92
2021/06/28 01:54:17;;;;;;;;;2.67;2.00;;;;;20.48;68.79;100984.38;5832514;24;46251;-93
2021/06/28 01:57:07;;;;;;;;;1.00;1.00;;;;;20.44;68.29;100988.03;5843038;24;45167;-93
2021/06/28 01:59:41;;;;;;;;;1.00;1.00;;;;;20.42;68.38;100988.97;5889162;24;44765;-92
2021/06/28 02:08:42;;;;;;;;;;;;;;;;;;;;;
2021/06/28 02:11:58;;;;;;;;;;;;;;;;;;;;;
2021/06/28 02:14:46;;;;;;;;;;;;;;;;;;;;;
2021/06/28 02:17:34;;;;;;;;;1.00;0.33;;;;;20.02;68.11;100955.00;5760637;24;74484;-92
2021/06/28 02:20:27;;;;;;;;;;;;;;;;;;;;;
2021/06/28 02:23:05;;;;;;;;;3.00;1.00;;;;;20.06;68.13;100946.91;5785254;24;68027;-92
2021/06/28 02:25:56;;;;;;;;;1.00;1.00;;;;;20.03;67.92;100931.81;5805633;24;44799;-90
2021/06/28 02:28:23;;;;;;;;;1.00;1.00;;;;;20.12;68.33;100949.50;5835145;24;46751;-92
2021/06/28 02:30:58;;;;;;;;;2.00;1.00;;;;;20.17;68.24;100966.31;5838085;24;45361;-93
2021/06/28 02:33:26;;;;;;;;;1.00;1.00;;;;;20.09;68.58;100965.59;5853290;24;45343;-93
2021/06/28 02:36:22;;;;;;;;;;;;;;;;;;;;;
2021/06/28 02:38:54;;;;;;;;;1.00;1.00;;;;;20.09;67.94;100968.25;5873856;24;75753;-94
2021/06/28 02:41:29;;;;;;;;;1.00;1.00;;;;;20.01;68.45;100971.00;5931375;23;45244;-92
2021/06/28 02:43:59;;;;;;;;;1.00;1.00;;;;;19.92;68.36;100968.53;6023132;23;45301;-93
2021/06/28 02:46:56;;;;;;;;;;;;;;;;;;;;;
2021/06/28 02:49:14;;;;;;;;;1.00;1.00;;;;;19.88;68.33;100991.72;6173437;22;46020;-91
2021/06/28 02:52:00;;;;;;;;;;;;;;;;;;;;;
2021/06/28 02:54:28;;;;;;;;;2.67;1.00;;;;;19.97;68.65;101036.88;6162379;23;69598;-94
2021/06/28 02:57:04;;;;;;;;;1.00;1.00;;;;;19.91;68.48;101026.31;6151030;23;45183;-92
2021/06/28 03:00:02;;;;;;;;;3.00;1.00;;;;;19.94;68.38;101034.28;6160486;23;46987;-92
2021/06/28 03:02:30;;;;;;;;;1.00;1.00;;;;;19.93;68.68;101004.94;6161566;23;45386;-92
2021/06/28 03:05:09;;;;;;;;;;;;;;;;;;;;;
2021/06/28 03:08:27;;;;;;;;;;;;;;;;;;;;;
2021/06/28 03:14:42;;;;;;;;;2.00;2.00;;;;;19.88;68.81;101003.25;5948019;24;45263;-95
2021/06/28 03:17:38;;;;;;;;;;;;;;;;;;;;;
2021/06/28 03:20:39;;;;;;;;;;;;;;;;;;;;;
2021/06/28 03:23:18;;;;;;;;;;;;;;;;;;;;;
2021/06/28 03:25:59;;;;;;;;;;;;;;;;;;;;;
2021/06/28 03:28:28;;;;;;;;;2.00;2.00;;;;;19.76;68.05;100936.78;5882634;24;68022;-94
2021/06/28 03:31:26;;;;;;;;;;;;;;;;;;;;;
2021/06/28 03:34:03;;;;;;;;;1.00;1.00;;;;;19.83;68.40;100988.22;5882327;24;73791;-93
2021/06/28 03:36:54;;;;;;;;;;;;;;;;;;;;;
2021/06/28 03:39:24;;;;;;;;;1.00;1.00;;;;;19.71;68.71;100968.88;5890526;24;69744;-93
2021/06/28 03:42:27;;;;;;;;;1.67;1.67;;;;;19.71;69.01;100957.31;5871423;24;44750;-95
2021/06/28 03:45:32;;;;;;;;;;;;;;;;;;;;;
2021/06/28 03:48:06;;;;;;;;;2.67;2.00;;;;;19.72;68.51;100962.63;5927414;23;71945;-94
2021/06/28 03:50:55;;;;;;;;;;;;;;;;;;;;;
2021/06/28 03:53:28;;;;;;;;;2.00;2.00;;;;;19.71;68.31;100955.53;6037217;23;63607;-95
2021/06/28 03:56:24;;;;;;;;;3.00;1.00;;;;;19.72;68.55;100975.97;6037355;23;47298;-93
2021/06/28 03:58:53;;;;;;;;;2.33;1.00;;;;;19.55;68.84;100958.47;5983595;23;45372;-95
2021/06/28 04:01:59;;;;;;;;;;;;;;;;;;;;;
2021/06/28 04:04:36;;;;;;;;;3.33;2.67;;;;;19.67;68.34;100983.19;6036619;23;64533;-95
2021/06/28 04:07:17;;;;;;;;;;;;;;;;;;;;;
2021/06/28 04:12:38;;;;;;;;;3.00;2.00;;;;;19.51;69.06;100970.09;6008980;23;45294;-94
2021/06/28 04:15:37;;;;;;;;;;;;;;;;;;;;;
2021/06/28 04:18:15;;;;;;;;;2.00;2.00;;;;;19.50;68.91;100962.13;5987150;23;75654;-94
2021/06/28 04:20:54;;;;;;;;;;;;;;;;;;;;;
2021/06/28 04:23:22;;;;;;;;;1.33;1.33;;;;;19.56;68.83;100962.88;6094212;23;68125;-96
2021/06/28 04:26:00;;;;;;;;;;;;;;;;;;;;;
2021/06/28 04:28:36;;;;;;;;;;;;;;;;;;;;;
2021/06/28 04:31:31;;;;;;;;;;;;;;;;;;;;;
2021/06/28 04:34:01;;;;;;;;;3.67;2.33;;;;;19.57;69.06;100979.75;6093371;23;45437;-95
2021/06/28 04:36:37;;;;;;;;;3.00;1.00;;;;;19.58;68.95;100985.97;6095997;23;45525;-94
2021/06/28 04:39:33;;;;;;;;;;;;;;;;;;;;;
2021/06/28 04:42:28;;;;;;;;;3.00;3.00;;;;;19.51;69.53;100987.84;6094218;23;73207;-93
2021/06/28 04:47:46;;;;;;;;;1.00;1.00;;;;;19.53;68.69;100994.03;6038501;23;45477;-95
2021/06/28 04:50:34;;;;;;;;;;;;;;;;;;;;;
2021/06/28 04:53:45;;;;;;;;;2.00;2.00;;;;;19.54;69.20;101015.34;6094822;23;72897;-94
2021/06/28 04:57:00;;;;;;;;;;;;;;;;;;;;;
2021/06/28 05:00:25;;;;;;;;;;;;;;;;;;;;;
2021/06/28 05:03:38;;;;;;;;;;;;;;;;;;;;;
2021/06/28 05:16:23;;;;;;;;;;;;;;;;;;;;;
2021/06/28 05:19:54;;;;;;;;;;;;;;;;;;;;;
2021/06/28 05:23:22;;;;;;;;;;;;;;;;;;;;;
2021/06/28 05:29:15;;;;;;;;;2.00;2.00;;;;;19.44;69.59;101043.06;4977835;28;46396;-87
2021/06/28 05:31:40;;;;;;;;;2.67;2.00;;;;;19.44;69.47;101037.72;4979152;28;45475;-87
2021/06/28 05:34:05;;;;;;;;;2.67;2.00;;;;;19.47;69.71;101040.34;4980691;28;45438;-82
2021/06/28 05:36:31;;;;;;;;;1.67;1.00;;;;;19.47;69.63;101040.34;4981314;28;45451;-87
2021/06/28 05:38:56;;;;;;;;;1.33;1.33;;;;;19.46;69.21;101038.56;4974240;28;46474;-85
2021/06/28 05:41:22;;;;;;;;;1.00;1.00;;;;;19.44;69.40;101035.06;4957030;28;45830;-81
2021/06/28 05:43:47;;;;;;;;;3.00;1.67;;;;;19.41;69.38;101016.44;4976776;28;45390;-82
2021/06/28 05:46:13;;;;;;;;;4.00;2.67;;;;;19.44;69.28;101005.72;4973731;28;45423;-85
2021/06/28 05:48:39;;;;;;;;;3.00;2.00;;;;;19.42;68.93;101010.19;4972492;28;46420;-88
2021/06/28 05:51:05;;;;;;;;;3.00;3.00;;;;;19.45;69.44;101018.16;4972471;28;45315;-91
2021/06/28 05:53:32;;;;;;;;;2.00;2.00;;;;;19.41;69.59;101005.78;4972679;28;45413;-85
2021/06/28 05:55:58;;;;;;;;;2.67;2.00;;;;;19.45;69.00;101002.19;4956652;28;45537;-85
2021/06/28 05:58:25;;;;;;;;;4.00;2.00;;;;;19.42;69.36;101003.09;4972925;28;46930;-87
2021/06/28 06:00:51;;;;;;;;;2.00;2.00;;;;;19.45;69.57;101020.84;4963190;28;45713;-89
2021/06/28 06:03:17;;;;;;;;;2.67;2.67;;;;;19.45;69.20;101004.84;4992355;28;45403;-83
2021/06/28 06:05:43;;;;;;;;;2.00;2.00;;;;;19.44;69.25;101003.94;5014055;28;45411;-86
2021/06/28 06:08:08;;;;;;;;;4.00;3.67;;;;;19.42;69.29;100991.53;5073426;28;45335;-83
2021/06/28 06:10:33;;;;;;;;;2.67;2.67;;;;;19.45;68.81;101012.84;5074524;28;45418;-83
2021/06/28 06:12:59;;;;;;;;;2.00;2.00;;;;;19.39;69.38;101018.25;5075055;28;45669;-82
2021/06/28 06:15:24;;;;;;;;;4.00;3.00;;;;;19.48;69.49;101027.91;5092005;27;45200;-85
2021/06/28 06:17:50;;;;;;;;;2.00;2.00;;;;;19.48;69.20;101026.09;5077340;27;45785;-87
2021/06/28 06:20:15;;;;;;;;;2.00;2.00;;;;;19.48;69.44;101028.78;5096015;27;45459;-83
2021/06/28 06:22:41;;;;;;;;;3.00;3.00;;;;;19.50;69.28;101042.09;5095952;27;45316;-85
2021/06/28 06:25:08;;;;;;;;;4.67;3.67;;;;;19.46;69.58;101046.56;5095084;27;45332;-91
2021/06/28 06:27:33;;;;;;;;;2.00;2.00;;;;;19.41;69.51;101038.66;5081522;28;46144;-89
2021/06/28 06:29:59;;;;;;;;;4.00;4.00;;;;;19.43;69.57;101067.97;5082142;28;45399;-86
2021/06/28 06:32:25;;;;;;;;;2.00;2.00;;;;;19.45;69.71;101074.16;5082488;28;45431;-88
2021/06/28 06:34:50;;;;;;;;;4.00;4.00;;;;;19.52;69.38;101077.63;5064097;28;45379;-90
2021/06/28 06:37:17;;;;;;;;;5.67;3.00;;;;;19.49;69.44;101061.66;5081347;27;46463;-89
2021/06/28 06:39:43;;;;;;;;;4.67;3.67;;;;;19.47;69.56;101059.00;5081059;28;45311;-88
2021/06/28 06:42:08;;;;;;;;;5.67;3.67;;;;;19.50;69.51;101058.94;5080611;27;45387;-86
2021/06/28 06:44:34;;;;;;;;;4.33;4.33;;;;;19.47;69.40;101045.69;5081167;27;45401;-89
2021/06/28 06:47:00;;;;;;;;;2.67;2.67;;;;;19.47;69.37;101053.69;5080825;27;45351;-86
2021/06/28 06:49:26;;;;;;;;;4.67;3.00;;;;;19.54;69.70;101059.81;5087911;28;45649;-85
2021/06/28 06:51:52;;;;;;;;;5.00;3.33;;;;;19.55;69.42;101059.78;5088322;27;45363;-91
2021/06/28 06:54:18;;;;;;;;;3.33;2.33;;;;;19.50;69.04;101052.75;5083980;28;45463;-87
2021/06/28 06:56:43;;;;;;;;;7.00;3.67;;;;;19.61;69.20;101076.56;5080431;28;45990;-86
2021/06/28 06:59:09;;;;;;;;;5.00;3.67;;;;;19.61;69.21;101079.25;5080390;28;45360;-90
2021/06/28 07:01:36;;;;;;;;;5.33;3.00;;;;;19.63;69.07;101085.47;5080565;28;45327;-93
2021/06/28 07:04:02;;;;;;;;;3.00;3.00;;;;;19.62;69.42;101070.34;5080930;27;45330;-90
2021/06/28 07:06:27;;;;;;;;;5.00;4.33;;;;;19.65;69.23;101081.84;5080895;28;46077;-87
2021/06/28 07:08:53;;;;;;;;;3.33;2.33;;;;;19.57;69.21;101057.09;5062505;28;45738;-93
2021/06/28 07:11:19;;;;;;;;;4.33;4.00;;;;;19.68;69.38;101054.25;5080319;27;45268;-87
2021/06/28 07:13:49;;;;;;;;;5.00;5.00;;;;;19.74;69.22;101061.28;5090740;28;45196;-87
2021/06/28 07:16:15;;;;;;;;;3.00;3.00;;;;;19.74;69.15;101070.16;5098090;27;46058;-87
2021/06/28 07:18:40;;;;;;;;;4.67;3.33;;;;;19.72;69.20;101061.31;5085948;27;45513;-91
2021/06/28 07:21:06;;;;;;;;;4.00;4.00;;;;;19.84;69.27;101088.72;5079189;28;45287;-91
2021/06/28 07:23:31;;;;;;;;;5.00;3.00;;;;;19.77;68.46;101067.47;5062308;28;45595;-89
2021/06/28 07:25:57;;;;;;;;;3.00;3.00;;;;;19.79;68.46;101068.31;5080069;28;45463;-89
2021/06/28 07:28:23;;;;;;;;;5.67;4.00;;;;;19.78;68.21;101071.00;5080085;28;45231;-86
2021/06/28 07:30:49;;;;;;;;;4.00;4.00;;;;;19.83;67.75;101092.25;5083320;28;45324;-89
2021/06/28 07:33:14;;;;;;;;;5.67;4.00;;;;;19.82;68.47;101086.03;5084379;28;45158;-87
2021/06/28 07:35:40;;;;;;;;;6.00;5.00;;;;;19.81;68.00;101080.75;5079723;28;47552;-85
2021/06/28 07:38:05;;;;;;;;;8.33;6.00;;;;;19.73;68.32;101075.53;5098825;28;45226;-86
2021/06/28 07:40:30;;;;;;;;;6.33;5.00;;;;;19.74;68.03;101077.28;5080580;28;45348;-89
2021/06/28 07:42:56;;;;;;;;;6.33;4.00;;;;;19.71;68.03;101072.00;5092474;27;45145;-86
2021/06/28 07:45:23;;;;;;;;;4.00;4.00;;;;;19.74;68.20;101079.94;5091051;27;45567;-89
2021/06/28 07:47:49;;;;;;;;;3.67;3.67;;;;;19.66;68.06;101078.28;5094438;28;45357;-85
2021/06/28 07:50:16;;;;;;;;;5.67;3.00;;;;;19.74;67.65;101094.16;5099995;28;44789;-85
2021/06/28 07:52:41;;;;;;;;;4.00;2.00;;;;;19.86;67.48;101105.56;5102089;28;45350;-85
2021/06/28 07:55:10;;;;;;;;;2.00;2.00;;;;;19.93;67.61;101104.56;5100536;28;44921;-87
2021/06/28 07:57:36;;;;;;;;;2.67;2.67;;;;;19.92;67.19;101081.47;5083178;27;45227;-91
2021/06/28 08:00:05;;;;;;;;;3.00;3.00;;;;;20.05;67.01;101094.59;5081577;28;45391;-86
2021/06/28 08:02:31;;;;;;;;;4.00;2.00;;;;;20.00;67.29;101084.88;5080193;28;45342;-86
2021/06/28 08:04:58;;;;;;;;;5.67;2.00;;;;;20.15;66.95;101100.69;5080504;28;45383;-91
2021/06/28 08:07:24;;;;;;;;;3.00;1.00;;;;;20.03;66.73;101075.91;5080339;27;45235;-91
2021/06/28 08:09:49;;;;;;;;;1.00;1.00;;;;;20.17;65.74;101082.84;5081717;28;45426;-89
2021/06/28 08:12:14;;;;;;;;;3.00;1.33;;;;;20.25;66.10;101080.94;5085469;27;45224;-89
2021/06/28 08:14:40;;;;;;;;;2.33;2.00;;;;;20.42;66.48;101082.41;5084406;28;45562;-89
2021/06/28 08:17:05;;;;;;;;;3.67;3.00;;;;;20.63;66.11;101083.81;5079492;28;45237;-89
2021/06/28 08:19:31;;;;;;;;;5.00;3.33;;;;;20.88;65.31;101091.34;5079601;28;45517;-91
2021/06/28 08:21:56;;;;;;;;;1.33;1.33;;;;;20.97;65.25;101076.03;5061009;28;45518;-88
2021/06/28 08:24:21;;;;;;;;;2.00;2.00;;;;;21.09;64.71;101090.97;5078756;27;45939;-87
2021/06/28 08:26:51;;;;;;;;;3.33;2.00;;;;;21.20;65.09;101093.38;5079136;27;45222;-89
2021/06/28 08:29:17;;;;;;;;;3.00;2.33;;;;;21.12;64.16;101064.16;5079210;27;45450;-89
2021/06/28 08:31:42;;;;;;;;;3.00;1.33;;;;;21.22;64.69;101084.44;5078841;28;45224;-87
2021/06/28 08:34:08;;;;;;;;;5.00;2.00;;;;;21.18;63.98;101074.72;5085459;27;45257;-86
2021/06/28 08:36:34;;;;;;;;;2.00;2.00;;;;;21.30;64.31;101086.94;5086909;27;45336;-87
2021/06/28 08:38:59;;;;;;;;;4.00;2.67;;;;;21.24;64.07;101079.03;5083677;27;45361;-87
2021/06/28 08:41:27;;;;;;;;;2.33;2.33;;;;;21.31;64.54;101093.16;5083260;27;45225;-87
2021/06/28 08:43:53;;;;;;;;;2.00;2.00;;;;;21.24;63.79;101079.94;5083469;27;45473;-87
2021/06/28 08:46:19;;;;;;;;;3.00;2.00;;;;;21.44;64.55;101093.78;5081925;27;45378;-90
2021/06/28 08:48:45;;;;;;;;;2.33;1.00;;;;;21.59;63.71;101090.78;5079107;28;45398;-87
2021/06/28 08:51:12;;;;;;;;;3.00;3.00;;;;;21.84;63.96;101084.88;5079346;28;45420;-89
2021/06/28 08:53:38;;;;;;;;;3.67;2.00;;;;;22.70;63.17;101083.56;5079120;27;46413;-88
2021/06/28 08:56:08;;;;;;;;;2.67;2.67;;;;;23.79;61.40;101088.41;5079141;28;45275;-89
2021/06/28 08:58:34;;;;;;;;;3.00;3.00;;;;;24.62;60.83;101090.13;5078321;28;45412;-86
2021/06/28 09:00:59;;;;;;;;;2.00;2.00;;;;;25.05;58.54;101071.53;5078071;27;45379;-88
2021/06/28 09:03:25;;;;;;;;;3.00;3.00;;;;;25.60;57.50;101073.91;5077705;28;45537;-89
2021/06/28 09:06:06;;;;;;;;;2.33;2.33;;;;;26.28;56.83;101082.81;5076740;28;45496;-86
2021/06/28 09:08:34;;;;;;;;;2.67;1.00;;;;;27.00;55.64;101087.75;5078051;27;45343;-87
2021/06/28 09:11:01;;;;;;;;;3.00;3.00;;;;;27.52;54.87;101081.69;5080003;28;45407;-88
2021/06/28 09:13:39;;;;;;;;;4.00;2.33;;;;;27.62;53.54;101100.16;5080362;27;46530;-91
2021/06/28 09:16:23;;;;;;;;;4.00;3.00;;;;;27.44;52.96;101089.31;5080182;28;45653;-87
2021/06/28 09:18:56;;;;;;;;;2.00;2.00;;;;;27.56;52.65;101108.56;5080556;28;45387;-87
2021/06/28 09:21:29;;;;;;;;;4.00;2.00;;;;;27.57;52.34;101099.50;5079661;28;45497;-88
2021/06/28 09:23:57;;;;;;;;;2.00;2.00;;;;;27.89;50.35;101112.38;5080175;28;46420;-88
2021/06/28 09:26:28;;;;;;;;;1.67;1.00;;;;;27.83;50.89;101119.88;5063221;28;45270;-86
2021/06/28 09:28:56;;;;;;;;;1.00;1.00;;;;;27.45;51.20;101111.78;5085777;28;44882;-85
2021/06/28 09:31:39;;;;;;;;;1.33;1.00;;;;;27.00;50.30;101112.03;5077900;28;45350;-90
2021/06/28 09:34:17;;;;;;;;;2.00;2.00;;;;;26.62;49.67;101110.13;5078081;28;45568;-88
2021/06/28 09:36:47;;;;;;;;;1.67;1.67;;;;;26.38;49.46;101113.78;5077765;28;45265;-87
2021/06/28 09:39:18;;;;;;;;;5.00;2.00;;;;;26.07;51.23;101113.31;5078079;28;45283;-87
2021/06/28 09:41:43;;;;;;;;;2.00;2.00;;;;;25.78;50.94;101120.78;5077756;28;45256;-86
2021/06/28 09:44:09;;;;;;;;;3.00;2.00;;;;;25.49;51.50;101123.66;5077768;28;45789;-92
2021/06/28 09:46:38;;;;;;;;;2.00;2.00;;;;;25.29;52.00;101119.06;5078212;28;45279;-86
2021/06/28 09:49:05;;;;;;;;;1.00;1.00;;;;;25.09;52.80;101126.06;5060368;28;45361;-90
2021/06/28 09:51:35;;;;;;;;;1.33;1.00;;;;;24.90;53.26;101125.84;5078304;27;45449;-88
2021/06/28 09:54:06;;;;;;;;;1.33;1.33;;;;;24.69;53.01;101114.94;5078264;28;45432;-89
2021/06/28 09:56:39;;;;;;;;;5.00;2.67;;;;;24.63;53.81;101132.19;5077615;28;45500;-87
2021/06/28 09:59:28;;;;;;;;;6.67;5.00;;;;;24.70;53.86;101119.41;5077752;28;45326;-90
2021/06/28 10:02:17;;;;;;;;;4.00;4.00;;;;;24.70;53.29;101125.66;5080683;27;45260;-87
2021/06/28 10:04:54;;;;;;;;;3.67;2.67;;;;;24.64;53.34;101121.38;5081189;28;45399;-90
2021/06/28 10:07:29;;;;;;;;;5.00;4.00;;;;;24.62;54.02;101112.50;5083096;28;45374;-90
2021/06/28 10:10:13;;;;;;;;;1.67;1.67;;;;;24.57;51.92;101127.03;5081506;28;45301;-88
2021/06/28 10:12:42;;;;;;;;;2.00;2.00;;;;;24.37;52.71;101118.72;5063653;28;45310;-87
2021/06/28 10:15:10;;;;;;;;;3.00;3.00;;;;;24.29;53.95;101126.19;5080923;28;45964;-91
2021/06/28 10:17:37;;;;;;;;;2.67;2.67;;;;;24.17;54.60;101122.09;5081320;28;45182;-90
2021/06/28 10:20:05;;;;;;;;;2.00;2.00;;;;;24.08;55.13;101123.25;5081579;28;45571;-88
2021/06/28 10:22:31;;;;;;;;;3.67;2.00;;;;;23.94;55.39;101127.28;5080684;27;45448;-87
2021/06/28 10:24:56;;;;;;;;;3.00;2.00;;;;;23.85;54.04;101138.31;5081303;28;45363;-89
2021/06/28 10:27:22;;;;;;;;;1.00;1.00;;;;;23.75;54.37;101131.50;5081612;27;45412;-91
2021/06/28 10:29:47;;;;;;;;;2.00;2.00;;;;;23.58;54.63;101132.91;5063173;28;45335;-86
2021/06/28 10:32:13;;;;;;;;;2.67;1.00;;;;;23.50;55.07;101133.13;5082243;28;45338;-89
2021/06/28 10:34:50;;;;;;;;;1.67;1.67;;;;;23.36;54.02;101125.47;5082006;28;45574;-86
2021/06/28 10:37:34;;;;;;;;;3.00;3.00;;;;;23.34;54.95;101135.38;5085398;27;45351;-93
2021/06/28 10:40:04;;;;;;;;;4.33;2.67;;;;;23.29;55.65;101121.25;5083678;28;45298;-93
2021/06/28 10:42:32;;;;;;;;;7.00;4.67;;;;;23.31;55.31;101098.78;5085193;28;45387;-90
2021/06/28 10:44:58;;;;;;;;;7.33;7.33;;;;;23.59;55.25;101116.75;5084939;28;46125;-89
2021/06/28 10:47:23;;;;;;;;;6.33;5.00;;;;;23.64;55.04;101119.31;5085899;28;45240;-91
2021/06/28 10:49:53;;;;;;;;;3.00;3.00;;;;;23.63;53.44;101122.91;5074999;28;45291;-94
2021/06/28 10:52:34;;;;;;;;;2.00;2.00;;;;;23.60;54.29;101114.97;5094202;28;44831;-85
2021/06/28 10:55:20;;;;;;;;;3.33;3.33;;;;;23.58;54.49;101112.31;5095598;27;46507;-89
2021/06/28 10:57:53;;;;;;;;;3.00;3.00;;;;;23.55;55.07;101108.84;5094100;28;45303;-91
2021/06/28 11:00:56;;;;;;;;;7.00;6.33;;;;;23.50;55.11;101105.44;5086635;28;45509;-93
2021/06/28 11:03:30;;;;;;;;;2.67;2.67;;;;;23.48;54.40;101103.66;5086840;28;45276;-89
2021/06/28 11:06:19;;;;;;;;;2.33;2.33;;;;;23.52;54.10;101099.06;5083442;27;46330;-88
2021/06/28 11:09:10;;;;;;;;;3.33;3.33;;;;;23.61;54.33;101097.91;5080879;27;45236;-92
2021/06/28 11:11:45;;;;;;;;;3.00;2.00;;;;;23.60;55.03;101097.03;5081891;28;45346;-90
2021/06/28 11:14:30;;;;;;;;;4.00;3.00;;;;;23.46;54.74;101084.06;5080682;28;45386;-90
2021/06/28 11:17:06;;;;;;;;;5.00;3.67;;;;;23.50;54.68;101100.06;5061134;28;47553;-89
2021/06/28 11:19:49;;;;;;;;;3.00;3.00;;;;;23.40;54.77;101089.59;5081533;28;45286;-90
2021/06/28 11:22:27;;;;;;;;;4.67;3.00;;;;;23.40;54.61;101099.44;5079740;28;45429;-85
2021/06/28 11:25:01;;;;;;;;;4.00;4.00;;;;;23.34;54.68;101100.50;5079459;28;45438;-86
2021/06/28 11:27:27;;;;;;;;;7.00;7.00;;;;;23.23;54.00;101087.41;5079604;28;46423;-86
2021/06/28 11:29:54;;;;;;;;;12.33;10.33;;;;;23.22;54.46;101096.41;5079569;28;45517;-86
2021/06/28 11:32:28;;;;;;;;;10.00;7.67;;;;;23.18;54.75;101095.59;5081627;28;45301;-86
2021/06/28 11:34:55;;;;;;;;;7.00;6.67;;;;;23.18;55.53;101090.22;5081472;28;45453;-88
2021/06/28 11:37:20;;;;;;;;;7.33;6.67;;;;;23.16;55.36;101081.34;5088312;28;45229;-88
2021/06/28 11:40:02;;;;;;;;;7.67;5.00;;;;;23.24;55.12;101100.81;5088432;28;45222;-88
2021/06/28 11:42:33;;;;;;;;;6.00;5.00;;;;;23.26;54.59;101098.06;5090706;28;45203;-86
2021/06/28 11:45:11;;;;;;;;;5.00;5.00;;;;;23.27;55.08;101098.97;5098081;28;45327;-85
2021/06/28 11:47:49;;;;;;;;;3.33;3.33;;;;;23.25;55.16;101098.97;5093871;28;45604;-85
2021/06/28 11:50:23;;;;;;;;;8.00;7.00;;;;;23.23;55.22;101092.78;5095845;28;45315;-86
2021/06/28 11:52:49;;;;;;;;;4.00;3.67;;;;;23.15;55.19;101090.34;5096754;27;44752;-86
2021/06/28 11:55:15;;;;;;;;;4.00;3.00;;;;;23.16;56.07;101099.28;5108893;27;45595;-86
2021/06/28 11:57:40;;;;;;;;;3.00;3.00;;;;;23.06;56.52;101086.13;5088782;28;46116;-89
2021/06/28 12:00:08;;;;;;;;;4.00;4.00;;;;;23.16;55.35;101097.44;5084349;28;45208;-90
2021/06/28 12:02:33;;;;;;;;;3.33;3.00;;;;;23.18;55.60;101095.59;5087327;28;45528;-91
2021/06/28 12:05:00;;;;;;;;;2.33;2.00;;;;;23.16;55.26;101092.09;5081349;28;45298;-87
2021/06/28 12:07:26;;;;;;;;;3.00;1.67;;;;;23.13;54.96;101087.72;5081520;27;45370;-89
2021/06/28 12:09:52;;;;;;;;;2.00;2.00;;;;;23.08;55.31;101086.06;5082455;27;45633;-90
2021/06/28 12:12:17;;;;;;;;;3.67;2.33;;;;;23.01;54.70;101082.72;5083922;28;45249;-88
2021/06/28 12:14:53;;;;;;;;;11.33;6.00;;;;;23.08;59.36;101086.97;5080841;28;45248;-88
2021/06/28 12:17:21;;;;;;;;;4.00;4.00;;;;;23.19;61.61;101093.81;5078870;27;47174;-91
2021/06/28 12:19:52;;;;;;;;;3.00;3.00;;;;;23.20;60.98;101084.84;5079713;28;45268;-89
2021/06/28 12:22:26;;;;;;;;;3.00;3.00;;;;;23.33;61.02;101093.41;5078998;28;45383;-90
2021/06/28 12:25:12;;;;;;;;;4.00;4.00;;;;;23.46;60.89;101086.75;5078907;28;45260;-92
2021/06/28 12:27:42;;;;;;;;;4.00;2.00;;;;;23.48;60.76;101082.22;5078653;28;46483;-86
2021/06/28 12:30:31;;;;;;;;;5.67;3.33;;;;;23.62;59.33;101098.81;5078561;28;45573;-89
2021/06/28 12:32:58;;;;;;;;;4.00;3.50;;;;;23.67;59.00;101083.44;5078396;28;45477;-90
2021/06/28 12:35:28;;;;;;;;;7.33;5.00;;;;;23.75;58.80;101092.13;5078873;28;45244;-87
2021/06/28 12:38:04;;;;;;;;;7.00;5.33;;;;;23.73;59.18;101085.03;5078961;28;45576;-89
2021/06/28 12:40:36;;;;;;;;;5.00;4.00;;;;;23.75;58.08;101091.25;5079059;27;45420;-88
2021/06/28 12:43:13;;;;;;;;;6.00;4.00;;;;;23.73;58.28;101087.72;5078462;28;45346;-91
2021/06/28 12:45:44;;;;;;;;;2.33;2.33;;;;;23.69;58.52;101081.59;5087588;28;45454;-85
2021/06/28 12:48:23;;;;;;;;;6.00;4.00;;;;;23.69;59.31;101093.19;5089054;28;45485;-85
2021/06/28 12:51:01;;;;;;;;;3.67;3.67;;;;;23.66;57.88;101079.88;5091455;28;45427;-84
2021/06/28 12:53:27;;;;;;;;;2.33;2.00;;;;;23.66;57.80;101090.63;5093140;28;45232;-85
2021/06/28 12:56:17;;;;;;;;;2.00;2.00;;;;;23.64;57.57;101084.41;5090536;28;44848;-86
2021/06/28 12:58:51;;;;;;;;;2.33;2.33;;;;;23.64;57.28;101081.72;5087792;27;46382;-85
2021/06/28 13:01:41;;;;;;;;;2.67;2.67;;;;;23.65;56.76;101077.25;5087344;28;45343;-84
2021/06/28 13:04:35;;;;;;;;;2.00;2.00;;;;;23.62;57.19;101062.13;5089378;28;45409;-86
2021/06/28 13:07:01;;;;;;;;;4.00;2.33;;;;;23.75;57.46;101069.78;5003956;28;45431;-88
2021/06/28 13:09:28;;;;;;;;;4.00;4.00;;;;;23.77;57.25;101066.13;5004688;28;45603;-87
2021/06/28 13:11:56;;;;;;;;;3.67;3.67;;;;;23.82;58.93;101074.00;5004260;28;45300;-84
2021/06/28 13:14:36;;;;;;;;;7.67;5.00;;;;;23.83;58.18;101070.38;4997641;28;45451;-85
2021/06/28 13:17:43;;;;;;;;;6.00;5.67;;;;;23.78;59.85;101062.50;4996385;28;45488;-84
2021/06/28 13:20:15;;;;;;;;;7.00;4.00;;;;;23.88;57.99;101060.38;4992928;28;46654;-85
2021/06/28 13:22:41;;;;;;;;;2.33;2.33;;;;;23.87;56.53;101061.31;4994948;28;45465;-85
2021/06/28 13:25:16;;;;;;;;;4.67;2.00;;;;;23.87;56.84;101065.78;4994903;28;45556;-84
2021/06/28 13:27:42;;;;;;;;;2.00;2.00;;;;;23.75;56.31;101045.63;4995196;28;45421;-85
2021/06/28 13:30:22;;;;;;;;;4.33;2.33;;;;;23.83;56.34;101048.91;4994661;28;45953;-86
2021/06/28 13:32:49;;;;;;;;;2.67;2.00;;;;;23.83;56.34;101051.59;4995209;28;45372;-85
2021/06/28 13:35:27;;;;;;;;;3.33;2.33;;;;;23.76;55.33;101044.66;4994698;28;45412;-85
2021/06/28 13:38:09;;;;;;;;;2.00;2.00;;;;;23.75;55.10;101046.50;4999709;28;45266;-87
2021/06/28 13:40:35;;;;;;;;;4.00;2.00;;;;;23.69;55.77;101031.47;4982576;28;47356;-85
2021/06/28 13:43:03;;;;;;;;;3.33;3.33;;;;;23.79;57.23;101049.94;5022449;28;45442;-85
2021/06/28 13:45:39;;;;;;;;;8.00;5.00;;;;;23.71;56.13;101023.38;5082847;28;45299;-86
2021/06/28 13:48:08;;;;;;;;;6.00;6.00;;;;;23.78;56.70;101035.66;5082676;27;45433;-85
2021/06/28 13:50:34;;;;;;;;;4.33;4.33;;;;;23.87;56.50;101042.53;5097393;27;47197;-86